sensor_id;sensor_type;location;lat;lon;timestamp;P1;durP1;ratioP1;P2;durP2;ratioP2
13122;SDS011;6627;50.920;12.050;2022-08-03T00:01:05;6.23;;;3.20;;
13122;SDS011;6627;50.920;12.050;2022-08-03T00:03:33;7.33;;;3.03;;
13122;SDS011;6627;50.920;12.050;2022-08-03T00:06:00;3.30;;;2.93;;
13122;SDS011;6627;50.920;12.050;2022-08-03T00:08:29;4.33;;;3.10;;
13122;SDS011;6627;50.920;12.050;2022-08-03T00:10:56;6.50;;;2.87;;
13122;SDS011;6627;50.920;12.050;2022-08-03T00:13:23;5.03;;;3.07;;
13122;SDS011;6627;50.920;12.050;2022-08-03T00:15:51;5.47;;;3.00;;
13122;SDS011;6627;50.920;12.050;2022-08-03T00:18:19;3.83;;;3.00;;
13122;SDS011;6627;50.920;12.050;2022-08-03T00:20:47;3.30;;;3.00;;
13122;SDS011;6627;50.920;12.050;2022-08-03T00:23:14;4.13;;;3.73;;
13122;SDS011;6627;50.920;12.050;2022-08-03T00:25:44;4.20;;;3.37;;
13122;SDS011;6627;50.920;12.050;2022-08-03T00:28:11;4.77;;;3.53;;
13122;SDS011;6627;50.920;12.050;2022-08-03T00:30:38;3.90;;;2.90;;
13122;SDS011;6627;50.920;12.050;2022-08-03T00:33:05;4.90;;;3.10;;
13122;SDS011;6627;50.920;12.050;2022-08-03T00:35:34;3.47;;;3.17;;
13122;SDS011;6627;50.920;12.050;2022-08-03T00:38:02;4.40;;;3.50;;
13122;SDS011;6627;50.920;12.050;2022-08-03T00:40:29;4.07;;;3.67;;
13122;SDS011;6627;50.920;12.050;2022-08-03T00:42:58;5.30;;;3.93;;
13122;SDS011;6627;50.920;12.050;2022-08-03T00:45:28;7.50;;;3.80;;
13122;SDS011;6627;50.920;12.050;2022-08-03T00:47:59;4.50;;;4.10;;
13122;SDS011;6627;50.920;12.050;2022-08-03T00:50:27;5.63;;;3.93;;
13122;SDS011;6627;50.920;12.050;2022-08-03T00:52:58;4.47;;;4.03;;
13122;SDS011;6627;50.920;12.050;2022-08-03T00:55:27;6.67;;;4.03;;
13122;SDS011;6627;50.920;12.050;2022-08-03T00:57:57;5.50;;;3.70;;
13122;SDS011;6627;50.920;12.050;2022-08-03T01:00:29;4.30;;;3.90;;
13122;SDS011;6627;50.920;12.050;2022-08-03T01:02:56;4.37;;;4.03;;
13122;SDS011;6627;50.920;12.050;2022-08-03T01:05:23;4.70;;;4.10;;
13122;SDS011;6627;50.920;12.050;2022-08-03T01:07:59;4.73;;;4.20;;
13122;SDS011;6627;50.920;12.050;2022-08-03T01:10:36;6.90;;;3.97;;
13122;SDS011;6627;50.920;12.050;2022-08-03T01:13:19;4.10;;;3.57;;
13122;SDS011;6627;50.920;12.050;2022-08-03T01:15:55;4.63;;;4.00;;
13122;SDS011;6627;50.920;12.050;2022-08-03T01:18:31;10.90;;;3.83;;
13122;SDS011;6627;50.920;12.050;2022-08-03T01:21:08;4.73;;;4.13;;
13122;SDS011;6627;50.920;12.050;2022-08-03T01:23:55;6.57;;;4.23;;
13122;SDS011;6627;50.920;12.050;2022-08-03T01:26:39;5.60;;;4.10;;
13122;SDS011;6627;50.920;12.050;2022-08-03T01:32:33;9.93;;;5.37;;
13122;SDS011;6627;50.920;12.050;2022-08-03T01:35:08;5.83;;;5.33;;
13122;SDS011;6627;50.920;12.050;2022-08-03T01:37:44;5.23;;;4.70;;
13122;SDS011;6627;50.920;12.050;2022-08-03T01:40:18;5.60;;;4.87;;
13122;SDS011;6627;50.920;12.050;2022-08-03T01:42:50;5.27;;;4.83;;
13122;SDS011;6627;50.920;12.050;2022-08-03T01:45:21;5.30;;;4.63;;
13122;SDS011;6627;50.920;12.050;2022-08-03T01:47:49;7.50;;;4.80;;
13122;SDS011;6627;50.920;12.050;2022-08-03T01:50:20;6.13;;;5.40;;
13122;SDS011;6627;50.920;12.050;2022-08-03T01:52:53;8.70;;;5.90;;
13122;SDS011;6627;50.920;12.050;2022-08-03T01:55:23;7.40;;;5.97;;
13122;SDS011;6627;50.920;12.050;2022-08-03T01:57:54;9.57;;;5.80;;
13122;SDS011;6627;50.920;12.050;2022-08-03T02:00:25;8.17;;;6.17;;
13122;SDS011;6627;50.920;12.050;2022-08-03T02:02:53;6.97;;;6.20;;
13122;SDS011;6627;50.920;12.050;2022-08-03T02:05:22;8.77;;;6.50;;
13122;SDS011;6627;50.920;12.050;2022-08-03T02:07:52;8.13;;;5.83;;
13122;SDS011;6627;50.920;12.050;2022-08-03T02:10:21;8.67;;;6.77;;
13122;SDS011;6627;50.920;12.050;2022-08-03T02:12:50;8.60;;;7.37;;
13122;SDS011;6627;50.920;12.050;2022-08-03T02:15:19;7.40;;;6.70;;
13122;SDS011;6627;50.920;12.050;2022-08-03T02:17:50;9.53;;;7.47;;
13122;SDS011;6627;50.920;12.050;2022-08-03T02:20:21;7.97;;;7.27;;
13122;SDS011;6627;50.920;12.050;2022-08-03T02:22:51;9.73;;;7.97;;
13122;SDS011;6627;50.920;12.050;2022-08-03T02:25:18;10.00;;;7.63;;
13122;SDS011;6627;50.920;12.050;2022-08-03T02:27:47;10.90;;;8.10;;
13122;SDS011;6627;50.920;12.050;2022-08-03T02:30:20;9.40;;;8.50;;
13122;SDS011;6627;50.920;12.050;2022-08-03T02:32:54;9.40;;;8.20;;
13122;SDS011;6627;50.920;12.050;2022-08-03T02:35:25;11.57;;;8.63;;
13122;SDS011;6627;50.920;12.050;2022-08-03T02:37:57;7.43;;;6.73;;
13122;SDS011;6627;50.920;12.050;2022-08-03T02:40:29;14.13;;;6.97;;
13122;SDS011;6627;50.920;12.050;2022-08-03T02:42:59;7.93;;;6.30;;
13122;SDS011;6627;50.920;12.050;2022-08-03T02:45:31;7.33;;;5.87;;
13122;SDS011;6627;50.920;12.050;2022-08-03T02:48:03;6.40;;;5.80;;
13122;SDS011;6627;50.920;12.050;2022-08-03T02:50:33;6.40;;;5.80;;
13122;SDS011;6627;50.920;12.050;2022-08-03T02:53:02;5.73;;;5.23;;
13122;SDS011;6627;50.920;12.050;2022-08-03T02:55:32;5.97;;;5.37;;
13122;SDS011;6627;50.920;12.050;2022-08-03T02:58:01;5.27;;;4.77;;
13122;SDS011;6627;50.920;12.050;2022-08-03T03:00:30;6.57;;;4.90;;
13122;SDS011;6627;50.920;12.050;2022-08-03T03:03:00;9.00;;;5.20;;
13122;SDS011;6627;50.920;12.050;2022-08-03T03:05:30;6.13;;;5.23;;
13122;SDS011;6627;50.920;12.050;2022-08-03T03:07:59;7.00;;;5.53;;
13122;SDS011;6627;50.920;12.050;2022-08-03T03:10:27;7.27;;;6.47;;
13122;SDS011;6627;50.920;12.050;2022-08-03T03:12:56;7.20;;;6.50;;
13122;SDS011;6627;50.920;12.050;2022-08-03T03:15:25;8.43;;;6.80;;
13122;SDS011;6627;50.920;12.050;2022-08-03T03:17:55;8.10;;;6.73;;
13122;SDS011;6627;50.920;12.050;2022-08-03T03:20:26;8.87;;;6.33;;
13122;SDS011;6627;50.920;12.050;2022-08-03T03:22:57;5.30;;;4.83;;
13122;SDS011;6627;50.920;12.050;2022-08-03T03:25:26;6.67;;;4.57;;
13122;SDS011;6627;50.920;12.050;2022-08-03T03:27:57;4.80;;;4.30;;
13122;SDS011;6627;50.920;12.050;2022-08-03T03:30:25;4.93;;;4.47;;
13122;SDS011;6627;50.920;12.050;2022-08-03T03:32:53;5.97;;;4.10;;
13122;SDS011;6627;50.920;12.050;2022-08-03T03:35:23;6.53;;;4.83;;
13122;SDS011;6627;50.920;12.050;2022-08-03T03:37:53;5.27;;;4.53;;
13122;SDS011;6627;50.920;12.050;2022-08-03T03:40:21;4.80;;;4.40;;
13122;SDS011;6627;50.920;12.050;2022-08-03T03:42:48;4.33;;;3.90;;
13122;SDS011;6627;50.920;12.050;2022-08-03T03:45:16;4.10;;;3.80;;
13122;SDS011;6627;50.920;12.050;2022-08-03T03:47:44;4.23;;;3.70;;
13122;SDS011;6627;50.920;12.050;2022-08-03T03:50:12;4.73;;;3.87;;
13122;SDS011;6627;50.920;12.050;2022-08-03T03:52:43;4.20;;;3.73;;
13122;SDS011;6627;50.920;12.050;2022-08-03T03:55:15;5.03;;;4.10;;
13122;SDS011;6627;50.920;12.050;2022-08-03T03:57:42;5.40;;;3.83;;
13122;SDS011;6627;50.920;12.050;2022-08-03T04:00:11;4.50;;;4.10;;
13122;SDS011;6627;50.920;12.050;2022-08-03T04:02:41;6.57;;;4.20;;
13122;SDS011;6627;50.920;12.050;2022-08-03T04:05:08;7.67;;;4.33;;
13122;SDS011;6627;50.920;12.050;2022-08-03T04:07:55;4.53;;;4.23;;
13122;SDS011;6627;50.920;12.050;2022-08-03T04:10:46;10.43;;;4.87;;
13122;SDS011;6627;50.920;12.050;2022-08-03T04:13:28;5.03;;;4.00;;
13122;SDS011;6627;50.920;12.050;2022-08-03T04:16:00;8.47;;;4.00;;
13122;SDS011;6627;50.920;12.050;2022-08-03T04:18:29;8.03;;;4.00;;
13122;SDS011;6627;50.920;12.050;2022-08-03T04:21:01;4.27;;;3.87;;
13122;SDS011;6627;50.920;12.050;2022-08-03T04:23:36;4.63;;;4.00;;
13122;SDS011;6627;50.920;12.050;2022-08-03T04:26:11;7.53;;;3.93;;
13122;SDS011;6627;50.920;12.050;2022-08-03T04:28:42;9.30;;;4.13;;
13122;SDS011;6627;50.920;12.050;2022-08-03T04:31:13;7.30;;;4.00;;
13122;SDS011;6627;50.920;12.050;2022-08-03T04:33:43;4.57;;;4.17;;
13122;SDS011;6627;50.920;12.050;2022-08-03T04:36:13;5.17;;;4.43;;
13122;SDS011;6627;50.920;12.050;2022-08-03T04:38:52;5.27;;;4.30;;
13122;SDS011;6627;50.920;12.050;2022-08-03T04:41:27;5.30;;;4.23;;
13122;SDS011;6627;50.920;12.050;2022-08-03T04:43:58;6.60;;;4.10;;
13122;SDS011;6627;50.920;12.050;2022-08-03T04:46:28;6.47;;;4.57;;
13122;SDS011;6627;50.920;12.050;2022-08-03T04:49:00;10.23;;;4.70;;
13122;SDS011;6627;50.920;12.050;2022-08-03T04:51:28;5.97;;;4.53;;
13122;SDS011;6627;50.920;12.050;2022-08-03T04:53:59;6.70;;;4.70;;
13122;SDS011;6627;50.920;12.050;2022-08-03T04:56:27;6.80;;;5.10;;
13122;SDS011;6627;50.920;12.050;2022-08-03T04:58:55;6.03;;;4.80;;
13122;SDS011;6627;50.920;12.050;2022-08-03T05:01:22;8.37;;;6.27;;
13122;SDS011;6627;50.920;12.050;2022-08-03T05:03:49;5.13;;;4.63;;
13122;SDS011;6627;50.920;12.050;2022-08-03T05:06:16;5.77;;;5.23;;
13122;SDS011;6627;50.920;12.050;2022-08-03T05:08:43;10.70;;;5.90;;
13122;SDS011;6627;50.920;12.050;2022-08-03T05:11:11;6.93;;;5.20;;
13122;SDS011;6627;50.920;12.050;2022-08-03T05:13:39;7.70;;;5.43;;
13122;SDS011;6627;50.920;12.050;2022-08-03T05:16:06;10.73;;;6.57;;
13122;SDS011;6627;50.920;12.050;2022-08-03T05:18:33;6.70;;;6.10;;
13122;SDS011;6627;50.920;12.050;2022-08-03T05:21:01;9.00;;;5.50;;
13122;SDS011;6627;50.920;12.050;2022-08-03T05:23:29;6.70;;;5.77;;
13122;SDS011;6627;50.920;12.050;2022-08-03T05:25:56;5.93;;;5.43;;
13122;SDS011;6627;50.920;12.050;2022-08-03T05:28:23;8.20;;;6.20;;
13122;SDS011;6627;50.920;12.050;2022-08-03T05:30:52;8.10;;;5.97;;
13122;SDS011;6627;50.920;12.050;2022-08-03T05:33:19;6.70;;;5.70;;
13122;SDS011;6627;50.920;12.050;2022-08-03T05:35:46;6.07;;;5.47;;
13122;SDS011;6627;50.920;12.050;2022-08-03T05:38:13;7.33;;;5.63;;
13122;SDS011;6627;50.920;12.050;2022-08-03T05:40:40;5.83;;;5.13;;
13122;SDS011;6627;50.920;12.050;2022-08-03T05:43:08;7.30;;;5.47;;
13122;SDS011;6627;50.920;12.050;2022-08-03T05:45:36;8.53;;;5.27;;
13122;SDS011;6627;50.920;12.050;2022-08-03T05:48:05;8.83;;;5.40;;
13122;SDS011;6627;50.920;12.050;2022-08-03T05:50:32;7.67;;;5.40;;
13122;SDS011;6627;50.920;12.050;2022-08-03T05:53:00;5.90;;;5.37;;
13122;SDS011;6627;50.920;12.050;2022-08-03T05:55:28;6.00;;;5.40;;
13122;SDS011;6627;50.920;12.050;2022-08-03T05:57:55;10.23;;;5.07;;
13122;SDS011;6627;50.920;12.050;2022-08-03T06:00:23;6.03;;;5.20;;
13122;SDS011;6627;50.920;12.050;2022-08-03T06:02:50;6.53;;;5.10;;
13122;SDS011;6627;50.920;12.050;2022-08-03T06:05:19;5.67;;;4.83;;
13122;SDS011;6627;50.920;12.050;2022-08-03T06:07:46;5.57;;;4.60;;
13122;SDS011;6627;50.920;12.050;2022-08-03T06:10:13;8.40;;;4.70;;
13122;SDS011;6627;50.920;12.050;2022-08-03T06:12:41;5.37;;;4.87;;
13122;SDS011;6627;50.920;12.050;2022-08-03T06:15:09;6.40;;;4.70;;
13122;SDS011;6627;50.920;12.050;2022-08-03T06:17:43;7.97;;;4.37;;
13122;SDS011;6627;50.920;12.050;2022-08-03T06:20:11;5.87;;;4.80;;
13122;SDS011;6627;50.920;12.050;2022-08-03T06:22:40;7.60;;;4.57;;
13122;SDS011;6627;50.920;12.050;2022-08-03T06:25:08;4.83;;;4.33;;
13122;SDS011;6627;50.920;12.050;2022-08-03T06:27:35;8.53;;;4.30;;
13122;SDS011;6627;50.920;12.050;2022-08-03T06:30:05;11.00;;;4.37;;
13122;SDS011;6627;50.920;12.050;2022-08-03T06:32:34;8.87;;;3.77;;
13122;SDS011;6627;50.920;12.050;2022-08-03T06:35:02;6.80;;;4.17;;
13122;SDS011;6627;50.920;12.050;2022-08-03T06:37:30;6.23;;;3.93;;
13122;SDS011;6627;50.920;12.050;2022-08-03T06:39:59;6.33;;;4.20;;
13122;SDS011;6627;50.920;12.050;2022-08-03T06:42:26;10.00;;;4.07;;
13122;SDS011;6627;50.920;12.050;2022-08-03T06:44:53;13.80;;;3.90;;
13122;SDS011;6627;50.920;12.050;2022-08-03T06:47:21;6.10;;;4.20;;
13122;SDS011;6627;50.920;12.050;2022-08-03T06:49:48;5.77;;;4.37;;
13122;SDS011;6627;50.920;12.050;2022-08-03T06:52:15;7.70;;;3.77;;
13122;SDS011;6627;50.920;12.050;2022-08-03T06:54:42;12.27;;;4.20;;
13122;SDS011;6627;50.920;12.050;2022-08-03T06:57:10;9.33;;;4.27;;
13122;SDS011;6627;50.920;12.050;2022-08-03T06:59:38;7.50;;;4.40;;
13122;SDS011;6627;50.920;12.050;2022-08-03T07:02:05;9.47;;;4.13;;
13122;SDS011;6627;50.920;12.050;2022-08-03T07:04:34;9.63;;;4.23;;
13122;SDS011;6627;50.920;12.050;2022-08-03T07:07:01;6.27;;;3.70;;
13122;SDS011;6627;50.920;12.050;2022-08-03T07:09:28;18.47;;;4.60;;
13122;SDS011;6627;50.920;12.050;2022-08-03T07:11:56;9.47;;;3.90;;
13122;SDS011;6627;50.920;12.050;2022-08-03T07:14:25;11.50;;;4.37;;
13122;SDS011;6627;50.920;12.050;2022-08-03T07:16:52;10.17;;;3.83;;
13122;SDS011;6627;50.920;12.050;2022-08-03T07:19:19;14.53;;;4.80;;
13122;SDS011;6627;50.920;12.050;2022-08-03T07:21:46;7.67;;;3.73;;
13122;SDS011;6627;50.920;12.050;2022-08-03T07:24:13;8.80;;;3.60;;
13122;SDS011;6627;50.920;12.050;2022-08-03T07:26:41;10.03;;;3.57;;
13122;SDS011;6627;50.920;12.050;2022-08-03T07:29:08;8.67;;;3.70;;
13122;SDS011;6627;50.920;12.050;2022-08-03T07:31:37;7.60;;;3.53;;
13122;SDS011;6627;50.920;12.050;2022-08-03T07:34:04;8.27;;;3.77;;
13122;SDS011;6627;50.920;12.050;2022-08-03T07:36:31;5.47;;;3.73;;
13122;SDS011;6627;50.920;12.050;2022-08-03T07:38:58;8.40;;;3.77;;
13122;SDS011;6627;50.920;12.050;2022-08-03T07:41:25;4.27;;;3.50;;
13122;SDS011;6627;50.920;12.050;2022-08-03T07:43:53;11.27;;;3.97;;
13122;SDS011;6627;50.920;12.050;2022-08-03T07:46:20;5.47;;;3.43;;
13122;SDS011;6627;50.920;12.050;2022-08-03T07:48:48;8.30;;;3.40;;
13122;SDS011;6627;50.920;12.050;2022-08-03T07:51:15;4.00;;;3.20;;
13122;SDS011;6627;50.920;12.050;2022-08-03T07:53:43;7.70;;;3.47;;
13122;SDS011;6627;50.920;12.050;2022-08-03T07:56:10;8.93;;;3.30;;
13122;SDS011;6627;50.920;12.050;2022-08-03T07:58:37;5.47;;;2.53;;
13122;SDS011;6627;50.920;12.050;2022-08-03T08:01:04;5.33;;;3.20;;
13122;SDS011;6627;50.920;12.050;2022-08-03T08:03:31;3.20;;;2.70;;
13122;SDS011;6627;50.920;12.050;2022-08-03T08:06:00;5.17;;;2.70;;
13122;SDS011;6627;50.920;12.050;2022-08-03T08:08:27;8.90;;;2.80;;
13122;SDS011;6627;50.920;12.050;2022-08-03T08:10:55;5.10;;;2.43;;
13122;SDS011;6627;50.920;12.050;2022-08-03T08:13:23;5.70;;;2.60;;
13122;SDS011;6627;50.920;12.050;2022-08-03T08:15:50;3.57;;;2.10;;
13122;SDS011;6627;50.920;12.050;2022-08-03T08:18:18;6.70;;;2.67;;
13122;SDS011;6627;50.920;12.050;2022-08-03T08:20:45;3.73;;;2.50;;
13122;SDS011;6627;50.920;12.050;2022-08-03T08:23:13;2.80;;;2.20;;
13122;SDS011;6627;50.920;12.050;2022-08-03T08:25:47;4.27;;;2.50;;
13122;SDS011;6627;50.920;12.050;2022-08-03T08:28:15;4.67;;;2.23;;
13122;SDS011;6627;50.920;12.050;2022-08-03T08:30:43;3.53;;;2.57;;
13122;SDS011;6627;50.920;12.050;2022-08-03T08:33:11;2.83;;;2.13;;
13122;SDS011;6627;50.920;12.050;2022-08-03T08:35:39;6.37;;;2.20;;
13122;SDS011;6627;50.920;12.050;2022-08-03T08:38:06;4.43;;;2.20;;
13122;SDS011;6627;50.920;12.050;2022-08-03T08:40:34;3.77;;;1.90;;
13122;SDS011;6627;50.920;12.050;2022-08-03T08:43:02;6.07;;;1.90;;
13122;SDS011;6627;50.920;12.050;2022-08-03T08:45:29;3.67;;;2.17;;
13122;SDS011;6627;50.920;12.050;2022-08-03T08:47:57;2.10;;;1.90;;
13122;SDS011;6627;50.920;12.050;2022-08-03T08:50:29;5.63;;;1.80;;
13122;SDS011;6627;50.920;12.050;2022-08-03T08:52:58;3.70;;;2.10;;
13122;SDS011;6627;50.920;12.050;2022-08-03T08:55:29;2.80;;;1.77;;
13122;SDS011;6627;50.920;12.050;2022-08-03T08:58:00;2.70;;;1.90;;
13122;SDS011;6627;50.920;12.050;2022-08-03T09:00:32;5.00;;;2.20;;
13122;SDS011;6627;50.920;12.050;2022-08-03T09:02:59;4.97;;;2.10;;
13122;SDS011;6627;50.920;12.050;2022-08-03T09:05:26;3.87;;;2.17;;
13122;SDS011;6627;50.920;12.050;2022-08-03T09:07:57;3.10;;;2.23;;
13122;SDS011;6627;50.920;12.050;2022-08-03T09:10:24;3.10;;;2.00;;
13122;SDS011;6627;50.920;12.050;2022-08-03T09:12:51;2.58;;;2.00;;
13122;SDS011;6627;50.920;12.050;2022-08-03T09:15:21;3.67;;;1.90;;
13122;SDS011;6627;50.920;12.050;2022-08-03T09:17:51;5.43;;;1.90;;
13122;SDS011;6627;50.920;12.050;2022-08-03T09:20:21;3.75;;;1.90;;
13122;SDS011;6627;50.920;12.050;2022-08-03T09:22:52;3.33;;;1.97;;
13122;SDS011;6627;50.920;12.050;2022-08-03T09:25:25;3.60;;;2.10;;
13122;SDS011;6627;50.920;12.050;2022-08-03T09:28:02;5.30;;;1.85;;
13122;SDS011;6627;50.920;12.050;2022-08-03T09:30:36;3.77;;;1.90;;
13122;SDS011;6627;50.920;12.050;2022-08-03T09:33:06;2.00;;;1.80;;
13122;SDS011;6627;50.920;12.050;2022-08-03T09:35:39;4.93;;;1.80;;
13122;SDS011;6627;50.920;12.050;2022-08-03T09:38:08;5.00;;;1.92;;
13122;SDS011;6627;50.920;12.050;2022-08-03T09:40:40;2.30;;;1.80;;
13122;SDS011;6627;50.920;12.050;2022-08-03T09:43:09;4.10;;;1.45;;
13122;SDS011;6627;50.920;12.050;2022-08-03T09:45:39;3.08;;;2.00;;
13122;SDS011;6627;50.920;12.050;2022-08-03T09:50:54;2.30;;;1.70;;
13122;SDS011;6627;50.920;12.050;2022-08-03T09:53:24;1.90;;;1.77;;
13122;SDS011;6627;50.920;12.050;2022-08-03T09:55:52;3.97;;;1.73;;
13122;SDS011;6627;50.920;12.050;2022-08-03T09:58:21;3.65;;;1.60;;
13122;SDS011;6627;50.920;12.050;2022-08-03T10:00:52;2.58;;;1.83;;
13122;SDS011;6627;50.920;12.050;2022-08-03T10:03:23;3.78;;;1.80;;
13122;SDS011;6627;50.920;12.050;2022-08-03T10:05:53;2.70;;;1.88;;
13122;SDS011;6627;50.920;12.050;2022-08-03T10:08:21;4.65;;;1.90;;
13122;SDS011;6627;50.920;12.050;2022-08-03T10:10:50;3.13;;;1.55;;
13122;SDS011;6627;50.920;12.050;2022-08-03T10:13:20;2.78;;;1.80;;
13122;SDS011;6627;50.920;12.050;2022-08-03T10:15:48;2.63;;;1.90;;
13122;SDS011;6627;50.920;12.050;2022-08-03T10:18:17;2.08;;;1.60;;
13122;SDS011;6627;50.920;12.050;2022-08-03T10:20:45;2.78;;;1.70;;
13122;SDS011;6627;50.920;12.050;2022-08-03T10:23:17;5.80;;;2.13;;
13122;SDS011;6627;50.920;12.050;2022-08-03T10:25:48;3.90;;;1.90;;
13122;SDS011;6627;50.920;12.050;2022-08-03T10:28:23;2.08;;;1.67;;
13122;SDS011;6627;50.920;12.050;2022-08-03T10:30:51;2.83;;;1.77;;
13122;SDS011;6627;50.920;12.050;2022-08-03T10:33:23;2.55;;;1.63;;
13122;SDS011;6627;50.920;12.050;2022-08-03T10:35:57;3.50;;;1.65;;
13122;SDS011;6627;50.920;12.050;2022-08-03T10:38:28;4.15;;;1.98;;
13122;SDS011;6627;50.920;12.050;2022-08-03T10:41:04;5.93;;;1.85;;
13122;SDS011;6627;50.920;12.050;2022-08-03T10:43:35;1.95;;;1.75;;
13122;SDS011;6627;50.920;12.050;2022-08-03T10:46:14;2.33;;;1.98;;
13122;SDS011;6627;50.920;12.050;2022-08-03T10:48:46;3.97;;;1.92;;
13122;SDS011;6627;50.920;12.050;2022-08-03T10:51:15;4.57;;;2.00;;
13122;SDS011;6627;50.920;12.050;2022-08-03T10:53:42;2.30;;;1.80;;
13122;SDS011;6627;50.920;12.050;2022-08-03T11:05:42;3.55;;;1.80;;
13122;SDS011;6627;50.920;12.050;2022-08-03T11:11:02;2.22;;;1.83;;
13122;SDS011;6627;50.920;12.050;2022-08-03T11:13:55;1.70;;;1.60;;
13122;SDS011;6627;50.920;12.050;2022-08-03T11:16:25;4.82;;;1.85;;
13122;SDS011;6627;50.920;12.050;2022-08-03T11:18:55;3.00;;;1.85;;
13122;SDS011;6627;50.920;12.050;2022-08-03T11:27:29;3.22;;;1.85;;
13122;SDS011;6627;50.920;12.050;2022-08-03T11:29:59;4.80;;;2.25;;
13122;SDS011;6627;50.920;12.050;2022-08-03T11:32:56;2.25;;;1.75;;
13122;SDS011;6627;50.920;12.050;2022-08-03T11:35:25;3.45;;;1.77;;
13122;SDS011;6627;50.920;12.050;2022-08-03T11:38:04;2.08;;;1.88;;
13122;SDS011;6627;50.920;12.050;2022-08-03T11:40:34;6.05;;;2.00;;
13122;SDS011;6627;50.920;12.050;2022-08-03T11:43:08;3.38;;;2.00;;
13122;SDS011;6627;50.920;12.050;2022-08-03T11:46:00;3.33;;;2.00;;
13122;SDS011;6627;50.920;12.050;2022-08-03T11:48:32;3.00;;;1.80;;
13122;SDS011;6627;50.920;12.050;2022-08-03T11:51:03;4.50;;;2.20;;
13122;SDS011;6627;50.920;12.050;2022-08-03T11:53:34;2.20;;;1.70;;
13122;SDS011;6627;50.920;12.050;2022-08-03T11:56:01;2.85;;;1.90;;
13122;SDS011;6627;50.920;12.050;2022-08-03T11:58:29;2.05;;;1.85;;
13122;SDS011;6627;50.920;12.050;2022-08-03T12:01:02;2.53;;;1.75;;
13122;SDS011;6627;50.920;12.050;2022-08-03T12:03:31;3.83;;;1.70;;
13122;SDS011;6627;50.920;12.050;2022-08-03T12:06:00;4.15;;;2.03;;
13122;SDS011;6627;50.920;12.050;2022-08-03T12:08:29;3.75;;;1.80;;
13122;SDS011;6627;50.920;12.050;2022-08-03T12:11:01;3.47;;;1.92;;
13122;SDS011;6627;50.920;12.050;2022-08-03T12:13:35;5.07;;;2.00;;
13122;SDS011;6627;50.920;12.050;2022-08-03T12:16:05;3.67;;;1.88;;
13122;SDS011;6627;50.920;12.050;2022-08-03T12:18:34;5.05;;;2.05;;
13122;SDS011;6627;50.920;12.050;2022-08-03T12:21:03;2.42;;;1.92;;
13122;SDS011;6627;50.920;12.050;2022-08-03T12:23:33;3.33;;;1.92;;
13122;SDS011;6627;50.920;12.050;2022-08-03T12:26:05;2.30;;;1.98;;
13122;SDS011;6627;50.920;12.050;2022-08-03T12:28:34;4.03;;;1.88;;
13122;SDS011;6627;50.920;12.050;2022-08-03T12:31:03;3.35;;;1.90;;
13122;SDS011;6627;50.920;12.050;2022-08-03T12:33:52;3.92;;;1.98;;
13122;SDS011;6627;50.920;12.050;2022-08-03T12:36:24;2.95;;;1.75;;
13122;SDS011;6627;50.920;12.050;2022-08-03T12:38:55;4.57;;;1.80;;
13122;SDS011;6627;50.920;12.050;2022-08-03T12:41:29;2.17;;;1.98;;
13122;SDS011;6627;50.920;12.050;2022-08-03T12:43:59;2.10;;;1.90;;
13122;SDS011;6627;50.920;12.050;2022-08-03T12:46:28;2.05;;;1.85;;
13122;SDS011;6627;50.920;12.050;2022-08-03T12:48:59;3.13;;;1.90;;
13122;SDS011;6627;50.920;12.050;2022-08-03T12:51:31;2.33;;;1.70;;
13122;SDS011;6627;50.920;12.050;2022-08-03T12:54:00;4.38;;;2.10;;
13122;SDS011;6627;50.920;12.050;2022-08-03T12:56:32;3.10;;;1.77;;
13122;SDS011;6627;50.920;12.050;2022-08-03T12:58:59;5.70;;;1.60;;
13122;SDS011;6627;50.920;12.050;2022-08-03T13:01:35;3.63;;;2.17;;
13122;SDS011;6627;50.920;12.050;2022-08-03T13:04:02;3.58;;;1.70;;
13122;SDS011;6627;50.920;12.050;2022-08-03T13:06:30;2.83;;;1.90;;
13122;SDS011;6627;50.920;12.050;2022-08-03T13:09:02;3.13;;;2.00;;
13122;SDS011;6627;50.920;12.050;2022-08-03T13:11:33;6.25;;;1.90;;
13122;SDS011;6627;50.920;12.050;2022-08-03T13:14:00;3.38;;;1.90;;
13122;SDS011;6627;50.920;12.050;2022-08-03T13:16:28;3.60;;;1.88;;
13122;SDS011;6627;50.920;12.050;2022-08-03T13:18:55;2.15;;;1.92;;
13122;SDS011;6627;50.920;12.050;2022-08-03T13:21:22;3.60;;;2.20;;
13122;SDS011;6627;50.920;12.050;2022-08-03T13:23:49;5.03;;;2.05;;
13122;SDS011;6627;50.920;12.050;2022-08-03T13:26:17;2.45;;;1.92;;
13122;SDS011;6627;50.920;12.050;2022-08-03T13:28:45;3.30;;;2.08;;
13122;SDS011;6627;50.920;12.050;2022-08-03T13:31:12;2.88;;;2.00;;
13122;SDS011;6627;50.920;12.050;2022-08-03T13:33:40;1.92;;;1.77;;
13122;SDS011;6627;50.920;12.050;2022-08-03T13:36:08;4.35;;;2.20;;
13122;SDS011;6627;50.920;12.050;2022-08-03T13:38:35;2.80;;;1.90;;
13122;SDS011;6627;50.920;12.050;2022-08-03T13:41:02;4.40;;;1.95;;
13122;SDS011;6627;50.920;12.050;2022-08-03T13:43:29;3.22;;;1.98;;
13122;SDS011;6627;50.920;12.050;2022-08-03T13:45:58;3.22;;;2.00;;
13122;SDS011;6627;50.920;12.050;2022-08-03T13:48:25;2.40;;;1.90;;
13122;SDS011;6627;50.920;12.050;2022-08-03T13:50:53;2.05;;;1.80;;
13122;SDS011;6627;50.920;12.050;2022-08-03T13:53:20;2.05;;;1.70;;
13122;SDS011;6627;50.920;12.050;2022-08-03T13:55:47;2.90;;;2.10;;
13122;SDS011;6627;50.920;12.050;2022-08-03T13:58:15;2.47;;;1.77;;
13122;SDS011;6627;50.920;12.050;2022-08-03T14:00:42;3.10;;;1.98;;
13122;SDS011;6627;50.920;12.050;2022-08-03T14:03:11;2.13;;;1.90;;
13122;SDS011;6627;50.920;12.050;2022-08-03T14:05:39;1.98;;;1.80;;
13122;SDS011;6627;50.920;12.050;2022-08-03T14:08:08;3.97;;;1.92;;
13122;SDS011;6627;50.920;12.050;2022-08-03T14:10:37;3.78;;;2.00;;
13122;SDS011;6627;50.920;12.050;2022-08-03T14:13:06;3.15;;;1.95;;
13122;SDS011;6627;50.920;12.050;2022-08-03T14:15:35;3.80;;;1.90;;
13122;SDS011;6627;50.920;12.050;2022-08-03T14:18:03;3.13;;;2.00;;
13122;SDS011;6627;50.920;12.050;2022-08-03T14:20:31;4.50;;;2.20;;
13122;SDS011;6627;50.920;12.050;2022-08-03T14:22:58;3.67;;;2.20;;
13122;SDS011;6627;50.920;12.050;2022-08-03T14:25:25;2.55;;;2.00;;
13122;SDS011;6627;50.920;12.050;2022-08-03T14:27:52;2.45;;;2.17;;
13122;SDS011;6627;50.920;12.050;2022-08-03T14:30:20;4.95;;;2.00;;
13122;SDS011;6627;50.920;12.050;2022-08-03T14:32:47;3.53;;;2.00;;
13122;SDS011;6627;50.920;12.050;2022-08-03T14:35:14;5.55;;;1.88;;
13122;SDS011;6627;50.920;12.050;2022-08-03T14:37:43;2.00;;;1.80;;
13122;SDS011;6627;50.920;12.050;2022-08-03T14:40:10;2.00;;;1.80;;
13122;SDS011;6627;50.920;12.050;2022-08-03T14:42:38;2.78;;;1.90;;
13122;SDS011;6627;50.920;12.050;2022-08-03T14:45:05;3.88;;;1.88;;
13122;SDS011;6627;50.920;12.050;2022-08-03T14:47:34;2.67;;;1.52;;
13122;SDS011;6627;50.920;12.050;2022-08-03T14:50:02;2.17;;;1.85;;
13122;SDS011;6627;50.920;12.050;2022-08-03T14:52:30;5.50;;;2.17;;
13122;SDS011;6627;50.920;12.050;2022-08-03T14:55:00;6.13;;;1.88;;
13122;SDS011;6627;50.920;12.050;2022-08-03T14:57:27;2.88;;;1.88;;
13122;SDS011;6627;50.920;12.050;2022-08-03T14:59:55;2.38;;;1.90;;
13122;SDS011;6627;50.920;12.050;2022-08-03T15:02:22;2.30;;;1.77;;
13122;SDS011;6627;50.920;12.050;2022-08-03T15:04:49;4.90;;;1.70;;
13122;SDS011;6627;50.920;12.050;2022-08-03T15:07:16;5.10;;;2.00;;
13122;SDS011;6627;50.920;12.050;2022-08-03T15:09:44;3.33;;;1.73;;
13122;SDS011;6627;50.920;12.050;2022-08-03T15:12:13;2.65;;;1.52;;
13122;SDS011;6627;50.920;12.050;2022-08-03T15:14:40;1.85;;;1.70;;
13122;SDS011;6627;50.920;12.050;2022-08-03T15:17:07;2.50;;;1.85;;
13122;SDS011;6627;50.920;12.050;2022-08-03T15:19:35;3.30;;;1.65;;
13122;SDS011;6627;50.920;12.050;2022-08-03T15:22:02;3.40;;;2.00;;
13122;SDS011;6627;50.920;12.050;2022-08-03T15:24:30;2.10;;;1.55;;
13122;SDS011;6627;50.920;12.050;2022-08-03T15:26:57;2.67;;;1.85;;